Watova, Oklahoma
Current Conditions -  °F | °C
As of 11:53 AM on Sunday 25 Jan 2015 (Local Time) from KBVO Reporting Station
Overcast Overcast  
Wind Chill: 51°   Ceiling: 4700
Heat Index: 51°   Visibility: 10mi
Dew Point: 32°   Wind: 10mph
Humidity: 48%   Direction: 340°NNW
Pressure: 29.93"   Gusts: 25mph
Location:  36.6745°N, 95.6917°W
Report Text: KBVO 251753Z AUTO 34009G22KT 300V020 10SM OVC047 11/00 A2993 RMK AO2 PK WND 32028/1705 SLP131 T01060000 10117 20083 51021
Loading
Personal Weather Stations






























Interactive Weather Map New forecast layout! Learn more

10-Day Weather Forecast

Advertisements
Track Severe Weather on mobile